<?xml version='1.0' encoding='UTF-8'?>
<gpx version="1.1" creator="https://www.komoot.de" xmlns="http://www.topografix.com/GPX/1/1" xmlns:xsi="http://www.w3.org/2001/XMLSchema-instance" xsi:schemaLocation="http://www.topografix.com/GPX/1/1 http://www.topografix.com/GPX/1/1/gpx.xsd">
  <metadata>
    <name>PW 11km</name>
    <author>
      <link href="https://www.komoot.de">
        <text>komoot</text>
        <type>text/html</type>
      </link>
    </author>
  </metadata>
  <trk>
    <name>PW 11km</name>
    <trkseg>
      <trkpt lat="48.222605" lon="11.119147">
        <ele>559.054594</ele>
        <time>2021-10-29T15:44:18.793Z</time>
      </trkpt>
      <trkpt lat="48.222600" lon="11.119151">
        <ele>559.054594</ele>
        <time>2021-10-29T15:44:19.388Z</time>
      </trkpt>
      <trkpt lat="48.222381" lon="11.119495">
        <ele>559.054594</ele>
        <time>2021-10-29T15:44:52.772Z</time>
      </trkpt>
      <trkpt lat="48.222318" lon="11.119596">
        <ele>559.054594</ele>
        <time>2021-10-29T15:45:02.577Z</time>
      </trkpt>
      <trkpt lat="48.222171" lon="11.119822">
        <ele>559.054594</ele>
        <time>2021-10-29T15:45:24.957Z</time>
      </trkpt>
      <trkpt lat="48.222136" lon="11.119875">
        <ele>559.054594</ele>
        <time>2021-10-29T15:45:30.331Z</time>
      </trkpt>
      <trkpt lat="48.222025" lon="11.120047">
        <ele>559.054594</ele>
        <time>2021-10-29T15:45:47.977Z</time>
      </trkpt>
      <trkpt lat="48.221936" lon="11.120183">
        <ele>558.836945</ele>
        <time>2021-10-29T15:46:01.494Z</time>
      </trkpt>
      <trkpt lat="48.221734" lon="11.120744">
        <ele>557.350672</ele>
        <time>2021-10-29T15:46:47.540Z</time>
      </trkpt>
      <trkpt lat="48.221693" lon="11.121135">
        <ele>556.428138</ele>
        <time>2021-10-29T15:47:16.290Z</time>
      </trkpt>
      <trkpt lat="48.221693" lon="11.121386">
        <ele>555.843125</ele>
        <time>2021-10-29T15:47:34.188Z</time>
      </trkpt>
      <trkpt lat="48.221710" lon="11.121911">
        <ele>554.618048</ele>
        <time>2021-10-29T15:48:11.891Z</time>
      </trkpt>
      <trkpt lat="48.221674" lon="11.121982">
        <ele>554.410094</ele>
        <time>2021-10-29T15:48:18.403Z</time>
      </trkpt>
      <trkpt lat="48.221662" lon="11.122006">
        <ele>554.340156</ele>
        <time>2021-10-29T15:48:20.759Z</time>
      </trkpt>
      <trkpt lat="48.221663" lon="11.122668">
        <ele>552.797208</ele>
        <time>2021-10-29T15:49:07.537Z</time>
      </trkpt>
      <trkpt lat="48.221727" lon="11.123522">
        <ele>552.053240</ele>
        <time>2021-10-29T15:50:06.919Z</time>
      </trkpt>
      <trkpt lat="48.222085" lon="11.124826">
        <ele>550.868794</ele>
        <time>2021-10-29T15:51:42.785Z</time>
      </trkpt>
      <trkpt lat="48.222150" lon="11.125499">
        <ele>550.324423</ele>
        <time>2021-10-29T15:52:28.279Z</time>
      </trkpt>
      <trkpt lat="48.222113" lon="11.126242">
        <ele>549.783366</ele>
        <time>2021-10-29T15:53:18.492Z</time>
      </trkpt>
      <trkpt lat="48.221913" lon="11.127533">
        <ele>548.820857</ele>
        <time>2021-10-29T15:54:49.031Z</time>
      </trkpt>
      <trkpt lat="48.221829" lon="11.127814">
        <ele>548.597201</ele>
        <time>2021-10-29T15:55:10.387Z</time>
      </trkpt>
      <trkpt lat="48.221721" lon="11.128554">
        <ele>547.533491</ele>
        <time>2021-10-29T15:56:03.195Z</time>
      </trkpt>
      <trkpt lat="48.221361" lon="11.129932">
        <ele>545.326691</ele>
        <time>2021-10-29T15:57:46.303Z</time>
      </trkpt>
      <trkpt lat="48.221100" lon="11.130710">
        <ele>544.006269</ele>
        <time>2021-10-29T15:58:47.558Z</time>
      </trkpt>
      <trkpt lat="48.220878" lon="11.131701">
        <ele>542.377172</ele>
        <time>2021-10-29T16:00:01.075Z</time>
      </trkpt>
      <trkpt lat="48.220740" lon="11.132280">
        <ele>541.418996</ele>
        <time>2021-10-29T16:00:44.089Z</time>
      </trkpt>
      <trkpt lat="48.220557" lon="11.133051">
        <ele>540.243834</ele>
        <time>2021-10-29T16:01:41.093Z</time>
      </trkpt>
      <trkpt lat="48.220160" lon="11.134189">
        <ele>539.497877</ele>
        <time>2021-10-29T16:03:09.100Z</time>
      </trkpt>
      <trkpt lat="48.219715" lon="11.134718">
        <ele>539.003100</ele>
        <time>2021-10-29T16:04:06.235Z</time>
      </trkpt>
      <trkpt lat="48.219539" lon="11.135414">
        <ele>538.751067</ele>
        <time>2021-10-29T16:04:56.051Z</time>
      </trkpt>
      <trkpt lat="48.219355" lon="11.135759">
        <ele>538.775052</ele>
        <time>2021-10-29T16:05:25.565Z</time>
      </trkpt>
      <trkpt lat="48.218967" lon="11.136291">
        <ele>538.817862</ele>
        <time>2021-10-29T16:06:18.697Z</time>
      </trkpt>
      <trkpt lat="48.219023" lon="11.136379">
        <ele>538.824467</ele>
        <time>2021-10-29T16:06:26.886Z</time>
      </trkpt>
      <trkpt lat="48.219128" lon="11.136543">
        <ele>538.836811</ele>
        <time>2021-10-29T16:06:42.205Z</time>
      </trkpt>
      <trkpt lat="48.219196" lon="11.136679">
        <ele>538.846040</ele>
        <time>2021-10-29T16:06:53.697Z</time>
      </trkpt>
      <trkpt lat="48.219276" lon="11.136535">
        <ele>538.856216</ele>
        <time>2021-10-29T16:07:06.238Z</time>
      </trkpt>
      <trkpt lat="48.219801" lon="11.135602">
        <ele>538.859834</ele>
        <time>2021-10-29T16:08:27.799Z</time>
      </trkpt>
      <trkpt lat="48.220177" lon="11.135226">
        <ele>538.839443</ele>
        <time>2021-10-29T16:09:13.391Z</time>
      </trkpt>
      <trkpt lat="48.220487" lon="11.135278">
        <ele>538.825365</ele>
        <time>2021-10-29T16:09:44.695Z</time>
      </trkpt>
      <trkpt lat="48.221092" lon="11.135185">
        <ele>538.799723</ele>
        <time>2021-10-29T16:10:46.005Z</time>
      </trkpt>
      <trkpt lat="48.221300" lon="11.135237">
        <ele>538.795788</ele>
        <time>2021-10-29T16:11:07.244Z</time>
      </trkpt>
      <trkpt lat="48.222008" lon="11.135822">
        <ele>538.780703</ele>
        <time>2021-10-29T16:12:28.679Z</time>
      </trkpt>
      <trkpt lat="48.222321" lon="11.135963">
        <ele>538.774604</ele>
        <time>2021-10-29T16:13:01.371Z</time>
      </trkpt>
      <trkpt lat="48.222896" lon="11.139444">
        <ele>538.055008</ele>
        <time>2021-10-29T16:17:02.855Z</time>
      </trkpt>
      <trkpt lat="48.223052" lon="11.140351">
        <ele>538.306708</ele>
        <time>2021-10-29T16:18:05.461Z</time>
      </trkpt>
      <trkpt lat="48.223833" lon="11.144900">
        <ele>541.263284</ele>
        <time>2021-10-29T16:23:29.039Z</time>
      </trkpt>
      <trkpt lat="48.224026" lon="11.146594">
        <ele>543.630353</ele>
        <time>2021-10-29T16:25:34.877Z</time>
      </trkpt>
      <trkpt lat="48.224001" lon="11.147049">
        <ele>544.222234</ele>
        <time>2021-10-29T16:26:08.081Z</time>
      </trkpt>
      <trkpt lat="48.223685" lon="11.147785">
        <ele>543.793546</ele>
        <time>2021-10-29T16:27:08.947Z</time>
      </trkpt>
      <trkpt lat="48.223528" lon="11.148203">
        <ele>543.558612</ele>
        <time>2021-10-29T16:27:41.450Z</time>
      </trkpt>
      <trkpt lat="48.222973" lon="11.149128">
        <ele>542.949145</ele>
        <time>2021-10-29T16:29:07.710Z</time>
      </trkpt>
      <trkpt lat="48.222810" lon="11.149311">
        <ele>542.451777</ele>
        <time>2021-10-29T16:29:29.941Z</time>
      </trkpt>
      <trkpt lat="48.221627" lon="11.150643">
        <ele>537.946690</ele>
        <time>2021-10-29T16:32:08.657Z</time>
      </trkpt>
      <trkpt lat="48.220497" lon="11.151947">
        <ele>535.624296</ele>
        <time>2021-10-29T16:34:35.745Z</time>
      </trkpt>
      <trkpt lat="48.219481" lon="11.152646">
        <ele>534.593663</ele>
        <time>2021-10-29T16:36:29.423Z</time>
      </trkpt>
      <trkpt lat="48.219127" lon="11.153154">
        <ele>534.380542</ele>
        <time>2021-10-29T16:37:18.989Z</time>
      </trkpt>
      <trkpt lat="48.218889" lon="11.153707">
        <ele>534.189671</ele>
        <time>2021-10-29T16:38:03.142Z</time>
      </trkpt>
      <trkpt lat="48.218834" lon="11.154098">
        <ele>534.073810</ele>
        <time>2021-10-29T16:38:29.956Z</time>
      </trkpt>
      <trkpt lat="48.218876" lon="11.155623">
        <ele>534.769623</ele>
        <time>2021-10-29T16:40:13.299Z</time>
      </trkpt>
      <trkpt lat="48.218901" lon="11.156475">
        <ele>535.177012</ele>
        <time>2021-10-29T16:41:12.723Z</time>
      </trkpt>
      <trkpt lat="48.220282" lon="11.156301">
        <ele>537.000706</ele>
        <time>2021-10-29T16:43:38.116Z</time>
      </trkpt>
      <trkpt lat="48.220933" lon="11.156384">
        <ele>537.943406</ele>
        <time>2021-10-29T16:44:47.190Z</time>
      </trkpt>
      <trkpt lat="48.221553" lon="11.156181">
        <ele>538.693469</ele>
        <time>2021-10-29T16:45:54.135Z</time>
      </trkpt>
      <trkpt lat="48.221939" lon="11.155804">
        <ele>539.237463</ele>
        <time>2021-10-29T16:46:42.225Z</time>
      </trkpt>
      <trkpt lat="48.222124" lon="11.155455">
        <ele>539.588454</ele>
        <time>2021-10-29T16:47:12.939Z</time>
      </trkpt>
      <trkpt lat="48.222528" lon="11.154427">
        <ele>540.252215</ele>
        <time>2021-10-29T16:48:34.954Z</time>
      </trkpt>
      <trkpt lat="48.223072" lon="11.153608">
        <ele>540.613760</ele>
        <time>2021-10-29T16:49:53.315Z</time>
      </trkpt>
      <trkpt lat="48.223770" lon="11.153128">
        <ele>540.995993</ele>
        <time>2021-10-29T16:51:10.355Z</time>
      </trkpt>
      <trkpt lat="48.224448" lon="11.152408">
        <ele>541.529824</ele>
        <time>2021-10-29T16:52:34.777Z</time>
      </trkpt>
      <trkpt lat="48.224649" lon="11.152352">
        <ele>541.661226</ele>
        <time>2021-10-29T16:52:55.750Z</time>
      </trkpt>
      <trkpt lat="48.225097" lon="11.152547">
        <ele>541.961047</ele>
        <time>2021-10-29T16:53:43.798Z</time>
      </trkpt>
      <trkpt lat="48.225348" lon="11.152375">
        <ele>542.239713</ele>
        <time>2021-10-29T16:54:12.477Z</time>
      </trkpt>
      <trkpt lat="48.225422" lon="11.152261">
        <ele>542.409904</ele>
        <time>2021-10-29T16:54:23.528Z</time>
      </trkpt>
      <trkpt lat="48.226112" lon="11.151199">
        <ele>543.996074</ele>
        <time>2021-10-29T16:56:08.148Z</time>
      </trkpt>
      <trkpt lat="48.226214" lon="11.150885">
        <ele>544.369605</ele>
        <time>2021-10-29T16:56:33.008Z</time>
      </trkpt>
      <trkpt lat="48.226284" lon="11.150434">
        <ele>544.864749</ele>
        <time>2021-10-29T16:57:05.943Z</time>
      </trkpt>
      <trkpt lat="48.226422" lon="11.150121">
        <ele>545.448576</ele>
        <time>2021-10-29T16:57:32.552Z</time>
      </trkpt>
      <trkpt lat="48.226905" lon="11.150003">
        <ele>546.698606</ele>
        <time>2021-10-29T16:58:25.173Z</time>
      </trkpt>
      <trkpt lat="48.227780" lon="11.149419">
        <ele>549.144721</ele>
        <time>2021-10-29T17:00:09.103Z</time>
      </trkpt>
      <trkpt lat="48.228134" lon="11.149296">
        <ele>550.562333</ele>
        <time>2021-10-29T17:00:50.158Z</time>
      </trkpt>
      <trkpt lat="48.228799" lon="11.149190">
        <ele>553.875938</ele>
        <time>2021-10-29T17:02:08.884Z</time>
      </trkpt>
      <trkpt lat="48.229142" lon="11.148953">
        <ele>555.746904</ele>
        <time>2021-10-29T17:02:53.815Z</time>
      </trkpt>
      <trkpt lat="48.229346" lon="11.148642">
        <ele>557.187583</ele>
        <time>2021-10-29T17:03:28.690Z</time>
      </trkpt>
      <trkpt lat="48.229509" lon="11.148127">
        <ele>559.060597</ele>
        <time>2021-10-29T17:04:13.769Z</time>
      </trkpt>
      <trkpt lat="48.229618" lon="11.147380">
        <ele>561.547186</ele>
        <time>2021-10-29T17:05:14.782Z</time>
      </trkpt>
      <trkpt lat="48.229894" lon="11.145914">
        <ele>566.500842</ele>
        <time>2021-10-29T17:07:14.893Z</time>
      </trkpt>
      <trkpt lat="48.230001" lon="11.145629">
        <ele>567.308184</ele>
        <time>2021-10-29T17:07:39.119Z</time>
      </trkpt>
      <trkpt lat="48.230155" lon="11.145014">
        <ele>567.735221</ele>
        <time>2021-10-29T17:08:25.872Z</time>
      </trkpt>
      <trkpt lat="48.230469" lon="11.143762">
        <ele>568.604737</ele>
        <time>2021-10-29T17:09:57.317Z</time>
      </trkpt>
      <trkpt lat="48.230635" lon="11.143703">
        <ele>568.771184</ele>
        <time>2021-10-29T17:10:14.541Z</time>
      </trkpt>
      <trkpt lat="48.230829" lon="11.143742">
        <ele>568.962162</ele>
        <time>2021-10-29T17:10:34.406Z</time>
      </trkpt>
      <trkpt lat="48.231201" lon="11.143487">
        <ele>568.051540</ele>
        <time>2021-10-29T17:11:16.344Z</time>
      </trkpt>
      <trkpt lat="48.231757" lon="11.143303">
        <ele>566.597805</ele>
        <time>2021-10-29T17:12:15.548Z</time>
      </trkpt>
      <trkpt lat="48.232315" lon="11.143375">
        <ele>565.167796</ele>
        <time>2021-10-29T17:13:14.488Z</time>
      </trkpt>
      <trkpt lat="48.233660" lon="11.143547">
        <ele>557.235923</ele>
        <time>2021-10-29T17:15:44.840Z</time>
      </trkpt>
      <trkpt lat="48.233896" lon="11.143641">
        <ele>555.571233</ele>
        <time>2021-10-29T17:16:13.038Z</time>
      </trkpt>
      <trkpt lat="48.234270" lon="11.143818">
        <ele>552.897643</ele>
        <time>2021-10-29T17:16:59.210Z</time>
      </trkpt>
      <trkpt lat="48.235278" lon="11.144004">
        <ele>544.556802</ele>
        <time>2021-10-29T17:19:00.149Z</time>
      </trkpt>
      <trkpt lat="48.235756" lon="11.144464">
        <ele>539.797023</ele>
        <time>2021-10-29T17:20:07.758Z</time>
      </trkpt>
      <trkpt lat="48.236793" lon="11.145911">
        <ele>533.898318</ele>
        <time>2021-10-29T17:22:43.245Z</time>
      </trkpt>
      <trkpt lat="48.236892" lon="11.145883">
        <ele>533.605598</ele>
        <time>2021-10-29T17:22:53.532Z</time>
      </trkpt>
      <trkpt lat="48.237149" lon="11.145811">
        <ele>532.845955</ele>
        <time>2021-10-29T17:23:19.970Z</time>
      </trkpt>
      <trkpt lat="48.238515" lon="11.145327">
        <ele>533.744109</ele>
        <time>2021-10-29T17:25:46.900Z</time>
      </trkpt>
      <trkpt lat="48.238062" lon="11.141734">
        <ele>540.012186</ele>
        <time>2021-10-29T17:30:14.817Z</time>
      </trkpt>
      <trkpt lat="48.237248" lon="11.137870">
        <ele>547.955964</ele>
        <time>2021-10-29T17:35:18.787Z</time>
      </trkpt>
      <trkpt lat="48.237040" lon="11.137182">
        <ele>548.791375</ele>
        <time>2021-10-29T17:36:12.448Z</time>
      </trkpt>
      <trkpt lat="48.236540" lon="11.135525">
        <ele>547.272536</ele>
        <time>2021-10-29T17:38:16.816Z</time>
      </trkpt>
      <trkpt lat="48.236560" lon="11.135435">
        <ele>547.064112</ele>
        <time>2021-10-29T17:38:23.559Z</time>
      </trkpt>
      <trkpt lat="48.238890" lon="11.133461">
        <ele>536.761534</ele>
        <time>2021-10-29T17:43:17.906Z</time>
      </trkpt>
      <trkpt lat="48.238505" lon="11.132655">
        <ele>536.967416</ele>
        <time>2021-10-29T17:44:25.800Z</time>
      </trkpt>
      <trkpt lat="48.239948" lon="11.131583">
        <ele>540.418254</ele>
        <time>2021-10-29T17:47:25.150Z</time>
      </trkpt>
      <trkpt lat="48.240076" lon="11.131315">
        <ele>541.362140</ele>
        <time>2021-10-29T17:47:50.948Z</time>
      </trkpt>
      <trkpt lat="48.240111" lon="11.130228">
        <ele>544.476864</ele>
        <time>2021-10-29T17:49:16.396Z</time>
      </trkpt>
      <trkpt lat="48.240252" lon="11.125837">
        <ele>555.343001</ele>
        <time>2021-10-29T17:54:48.223Z</time>
      </trkpt>
      <trkpt lat="48.240388" lon="11.124672">
        <ele>557.651724</ele>
        <time>2021-10-29T17:56:13.279Z</time>
      </trkpt>
      <trkpt lat="48.240779" lon="11.122656">
        <ele>562.435384</ele>
        <time>2021-10-29T17:58:47.506Z</time>
      </trkpt>
      <trkpt lat="48.240763" lon="11.122523">
        <ele>562.761624</ele>
        <time>2021-10-29T17:58:57.831Z</time>
      </trkpt>
      <trkpt lat="48.240953" lon="11.121761">
        <ele>564.725673</ele>
        <time>2021-10-29T18:00:00.877Z</time>
      </trkpt>
      <trkpt lat="48.241029" lon="11.121597">
        <ele>565.207950</ele>
        <time>2021-10-29T18:00:16.680Z</time>
      </trkpt>
      <trkpt lat="48.241036" lon="11.121116">
        <ele>566.101515</ele>
        <time>2021-10-29T18:00:54.106Z</time>
      </trkpt>
      <trkpt lat="48.240918" lon="11.120801">
        <ele>566.739064</ele>
        <time>2021-10-29T18:01:21.322Z</time>
      </trkpt>
      <trkpt lat="48.240760" lon="11.120106">
        <ele>568.034550</ele>
        <time>2021-10-29T18:02:15.756Z</time>
      </trkpt>
      <trkpt lat="48.240740" lon="11.119547">
        <ele>569.022087</ele>
        <time>2021-10-29T18:02:55.663Z</time>
      </trkpt>
      <trkpt lat="48.240736" lon="11.119440">
        <ele>569.211140</ele>
        <time>2021-10-29T18:03:02.904Z</time>
      </trkpt>
      <trkpt lat="48.240637" lon="11.119224">
        <ele>569.673691</ele>
        <time>2021-10-29T18:03:21.598Z</time>
      </trkpt>
      <trkpt lat="48.240380" lon="11.119128">
        <ele>570.037005</ele>
        <time>2021-10-29T18:03:48.480Z</time>
      </trkpt>
      <trkpt lat="48.240100" lon="11.119024">
        <ele>569.708420</ele>
        <time>2021-10-29T18:04:17.442Z</time>
      </trkpt>
      <trkpt lat="48.239488" lon="11.118680">
        <ele>568.963989</ele>
        <time>2021-10-29T18:05:24.404Z</time>
      </trkpt>
      <trkpt lat="48.238350" lon="11.118465">
        <ele>567.407707</ele>
        <time>2021-10-29T18:07:24.465Z</time>
      </trkpt>
      <trkpt lat="48.238090" lon="11.118364">
        <ele>566.925092</ele>
        <time>2021-10-29T18:07:52.393Z</time>
      </trkpt>
      <trkpt lat="48.237019" lon="11.117676">
        <ele>564.840798</ele>
        <time>2021-10-29T18:09:53.029Z</time>
      </trkpt>
      <trkpt lat="48.235919" lon="11.117157">
        <ele>563.499684</ele>
        <time>2021-10-29T18:11:51.890Z</time>
      </trkpt>
      <trkpt lat="48.235351" lon="11.117068">
        <ele>562.835447</ele>
        <time>2021-10-29T18:12:50.028Z</time>
      </trkpt>
      <trkpt lat="48.233939" lon="11.117436">
        <ele>562.696412</ele>
        <time>2021-10-29T18:15:13.767Z</time>
      </trkpt>
      <trkpt lat="48.233001" lon="11.117594">
        <ele>563.030793</ele>
        <time>2021-10-29T18:16:49.424Z</time>
      </trkpt>
      <trkpt lat="48.232290" lon="11.117569">
        <ele>563.519098</ele>
        <time>2021-10-29T18:18:02.594Z</time>
      </trkpt>
      <trkpt lat="48.231947" lon="11.117694">
        <ele>563.761441</ele>
        <time>2021-10-29T18:18:39.127Z</time>
      </trkpt>
      <trkpt lat="48.230608" lon="11.119035">
        <ele>565.234072</ele>
        <time>2021-10-29T18:21:26.079Z</time>
      </trkpt>
      <trkpt lat="48.229584" lon="11.119578">
        <ele>566.033852</ele>
        <time>2021-10-29T18:23:17.817Z</time>
      </trkpt>
      <trkpt lat="48.229115" lon="11.119674">
        <ele>566.322152</ele>
        <time>2021-10-29T18:24:06.073Z</time>
      </trkpt>
      <trkpt lat="48.228964" lon="11.119765">
        <ele>566.421257</ele>
        <time>2021-10-29T18:24:22.682Z</time>
      </trkpt>
      <trkpt lat="48.228375" lon="11.119727">
        <ele>566.756354</ele>
        <time>2021-10-29T18:25:22.591Z</time>
      </trkpt>
      <trkpt lat="48.226922" lon="11.119830">
        <ele>567.318280</ele>
        <time>2021-10-29T18:27:50.047Z</time>
      </trkpt>
      <trkpt lat="48.226462" lon="11.119737">
        <ele>567.426303</ele>
        <time>2021-10-29T18:28:37.178Z</time>
      </trkpt>
      <trkpt lat="48.226000" lon="11.119646">
        <ele>567.460484</ele>
        <time>2021-10-29T18:29:24.569Z</time>
      </trkpt>
      <trkpt lat="48.225504" lon="11.119638">
        <ele>567.496871</ele>
        <time>2021-10-29T18:30:14.508Z</time>
      </trkpt>
      <trkpt lat="48.225197" lon="11.119678">
        <ele>567.519476</ele>
        <time>2021-10-29T18:30:45.552Z</time>
      </trkpt>
      <trkpt lat="48.225079" lon="11.119693">
        <ele>567.528163</ele>
        <time>2021-10-29T18:30:57.414Z</time>
      </trkpt>
      <trkpt lat="48.224955" lon="11.119712">
        <ele>567.537307</ele>
        <time>2021-10-29T18:31:09.974Z</time>
      </trkpt>
      <trkpt lat="48.224911" lon="11.119716">
        <ele>567.540540</ele>
        <time>2021-10-29T18:31:14.453Z</time>
      </trkpt>
      <trkpt lat="48.224843" lon="11.119724">
        <ele>567.541536</ele>
        <time>2021-10-29T18:31:21.288Z</time>
      </trkpt>
      <trkpt lat="48.224649" lon="11.119668">
        <ele>567.541536</ele>
        <time>2021-10-29T18:31:41.309Z</time>
      </trkpt>
      <trkpt lat="48.224427" lon="11.119500">
        <ele>567.541536</ele>
        <time>2021-10-29T18:32:06.609Z</time>
      </trkpt>
      <trkpt lat="48.224090" lon="11.119118">
        <ele>567.541536</ele>
        <time>2021-10-29T18:32:49.846Z</time>
      </trkpt>
      <trkpt lat="48.223911" lon="11.118915">
        <ele>567.541536</ele>
        <time>2021-10-29T18:33:12.920Z</time>
      </trkpt>
      <trkpt lat="48.223893" lon="11.118892">
        <ele>567.541536</ele>
        <time>2021-10-29T18:33:15.327Z</time>
      </trkpt>
      <trkpt lat="48.223866" lon="11.118856">
        <ele>567.541536</ele>
        <time>2021-10-29T18:33:19.024Z</time>
      </trkpt>
      <trkpt lat="48.223834" lon="11.118816">
        <ele>567.541536</ele>
        <time>2021-10-29T18:33:23.229Z</time>
      </trkpt>
      <trkpt lat="48.223732" lon="11.118555">
        <ele>567.541536</ele>
        <time>2021-10-29T18:33:44.039Z</time>
      </trkpt>
      <trkpt lat="48.223416" lon="11.118724">
        <ele>567.541536</ele>
        <time>2021-10-29T18:34:18.556Z</time>
      </trkpt>
      <trkpt lat="48.223148" lon="11.118778">
        <ele>567.541536</ele>
        <time>2021-10-29T18:34:46.470Z</time>
      </trkpt>
      <trkpt lat="48.223131" lon="11.118782">
        <ele>567.541536</ele>
        <time>2021-10-29T18:34:48.239Z</time>
      </trkpt>
      <trkpt lat="48.222881" lon="11.118880">
        <ele>567.541536</ele>
        <time>2021-10-29T18:35:14.836Z</time>
      </trkpt>
      <trkpt lat="48.222605" lon="11.119147">
        <ele>567.541536</ele>
        <time>2021-10-29T18:35:48.524Z</time>
      </trkpt>
    </trkseg>
  </trk>
</gpx>